createdAt,value
2018-07-31T00:02:37.672Z,6.40
2018-07-31T00:07:35.064Z,6.63
2018-07-31T00:12:32.478Z,6.47
2018-07-31T00:17:29.895Z,6.97
2018-07-31T00:22:27.316Z,6.53
2018-07-31T00:27:24.720Z,6.67
2018-07-31T00:32:22.105Z,6.60
2018-07-31T00:37:19.522Z,6.97
2018-07-31T00:42:16.900Z,7.03
2018-07-31T00:47:14.298Z,6.33
2018-07-31T00:52:11.693Z,7.40
2018-07-31T00:57:09.097Z,5.47
2018-07-31T01:02:06.545Z,6.97
2018-07-31T01:07:04.294Z,7.53
2018-07-31T01:12:01.719Z,7.57
2018-07-31T01:16:59.107Z,7.40
2018-07-31T01:21:56.566Z,7.67
2018-07-31T01:26:54.091Z,7.10
2018-07-31T01:31:51.471Z,6.73
2018-07-31T01:36:48.872Z,7.90
2018-07-31T01:41:46.310Z,6.80
2018-07-31T01:46:43.691Z,7.70
2018-07-31T01:51:41.096Z,6.63
2018-07-31T01:56:38.475Z,7.30
2018-07-31T02:01:35.894Z,6.90
2018-07-31T02:06:33.302Z,7.60
2018-07-31T02:11:30.695Z,7.33
2018-07-31T02:16:28.074Z,7.80
2018-07-31T02:21:25.503Z,8.17
2018-07-31T02:26:22.975Z,7.30
2018-07-31T02:31:20.379Z,7.37
2018-07-31T02:36:17.783Z,7.73
2018-07-31T02:41:15.187Z,7.73
2018-07-31T02:46:12.596Z,7.87
2018-07-31T02:51:10.045Z,7.70
2018-07-31T02:56:07.467Z,7.20
2018-07-31T03:01:04.923Z,6.70
2018-07-31T03:06:02.362Z,7.00
2018-07-31T03:10:59.818Z,7.67
2018-07-31T03:15:57.231Z,7.70
2018-07-31T03:20:54.715Z,6.87
2018-07-31T03:25:52.258Z,7.90
2018-07-31T03:30:49.687Z,7.33
2018-07-31T03:35:47.108Z,7.17
2018-07-31T03:40:44.579Z,8.73
2018-07-31T03:45:42.055Z,7.30
2018-07-31T03:50:39.496Z,8.00
2018-07-31T03:55:36.964Z,7.17
2018-07-31T04:00:34.323Z,7.50
2018-07-31T04:05:31.831Z,6.90
2018-07-31T04:10:29.283Z,8.00
2018-07-31T04:15:26.711Z,6.83
2018-07-31T04:20:24.439Z,7.23
2018-07-31T04:25:22.311Z,7.53
2018-07-31T04:30:19.736Z,6.83
2018-07-31T04:35:17.213Z,7.70
2018-07-31T04:40:14.644Z,7.60
2018-07-31T04:45:12.097Z,6.80
2018-07-31T04:50:10.459Z,7.13
2018-07-31T04:55:07.869Z,7.17
2018-07-31T05:00:07.289Z,7.77
2018-07-31T05:05:04.835Z,7.67
2018-07-31T05:10:02.280Z,6.40
2018-07-31T05:14:59.675Z,8.33
2018-07-31T05:19:57.126Z,8.80
2018-07-31T05:24:55.150Z,9.23
2018-07-31T05:29:52.580Z,10.40
2018-07-31T05:34:49.992Z,10.20
2018-07-31T05:39:47.399Z,10.87
2018-07-31T05:44:44.810Z,11.87
2018-07-31T05:49:42.259Z,14.00
2018-07-31T05:54:39.986Z,11.50
2018-07-31T05:59:37.422Z,13.20
2018-07-31T06:04:34.908Z,14.07
2018-07-31T06:09:32.397Z,12.40
2018-07-31T06:14:29.769Z,12.70
2018-07-31T06:19:27.205Z,12.30
2018-07-31T06:24:24.675Z,12.90
2018-07-31T06:29:22.115Z,13.13
2018-07-31T06:34:19.518Z,11.40
2018-07-31T06:39:16.937Z,13.30
2018-07-31T06:44:14.372Z,13.20
2018-07-31T06:49:12.759Z,13.80
2018-07-31T06:54:10.228Z,13.83
2018-07-31T06:59:07.631Z,12.17
2018-07-31T07:04:05.127Z,13.70
2018-07-31T07:09:02.863Z,13.00
2018-07-31T07:14:00.278Z,13.20
2018-07-31T07:18:57.701Z,12.47
2018-07-31T07:23:56.617Z,13.43
2018-07-31T07:28:56.158Z,13.60
2018-07-31T07:33:53.622Z,13.80
2018-07-31T07:38:51.030Z,13.40
2018-07-31T07:43:48.448Z,12.33
2018-07-31T07:48:45.880Z,13.00
2018-07-31T07:53:44.363Z,13.60
2018-07-31T07:58:41.762Z,13.30
2018-07-31T08:03:39.193Z,13.37
2018-07-31T08:08:36.613Z,12.87
2018-07-31T08:13:34.025Z,11.60
2018-07-31T08:18:34.466Z,12.20
2018-07-31T08:23:39.921Z,11.50
2018-07-31T08:28:37.386Z,11.40
2018-07-31T08:33:34.866Z,11.27
2018-07-31T08:38:32.305Z,12.30
2018-07-31T08:43:29.675Z,10.13
2018-07-31T08:48:27.108Z,10.20
2018-07-31T08:53:32.832Z,9.73
2018-07-31T08:58:30.243Z,11.33
2018-07-31T09:03:27.745Z,9.90
2018-07-31T09:08:25.261Z,8.10
2018-07-31T09:13:22.630Z,8.70
2018-07-31T09:18:20.029Z,8.17
2018-07-31T09:23:20.549Z,6.70
2018-07-31T09:28:18.576Z,7.90
2018-07-31T09:33:16.025Z,6.67
2018-07-31T09:38:13.439Z,6.00
2018-07-31T09:43:10.879Z,5.80
2018-07-31T09:48:08.322Z,5.50
2018-07-31T09:53:12.763Z,5.70
2018-07-31T09:58:10.300Z,3.20
2018-07-31T10:03:07.748Z,4.40
2018-07-31T10:08:05.626Z,3.43
2018-07-31T10:13:03.128Z,4.10
2018-07-31T10:18:00.684Z,4.30
2018-07-31T10:22:59.645Z,3.73
2018-07-31T10:28:03.706Z,3.67
2018-07-31T10:33:01.289Z,3.50
2018-07-31T10:37:58.763Z,3.07
2018-07-31T10:42:56.291Z,2.97
2018-07-31T10:47:53.765Z,4.87
2018-07-31T10:52:53.700Z,4.00
2018-07-31T10:57:51.299Z,2.80
2018-07-31T11:02:48.837Z,2.67
2018-07-31T11:07:46.237Z,2.63
2018-07-31T11:12:43.734Z,2.10
2018-07-31T11:17:41.332Z,1.90
2018-07-31T11:22:38.837Z,1.57
2018-07-31T11:27:36.409Z,1.73
2018-07-31T11:32:33.763Z,1.60
2018-07-31T11:37:31.203Z,1.83
2018-07-31T11:42:28.671Z,2.10
2018-07-31T11:47:26.124Z,2.30
2018-07-31T11:52:23.564Z,1.70
2018-07-31T11:57:20.983Z,1.80
2018-07-31T12:02:18.406Z,2.17
2018-07-31T12:07:15.859Z,2.20
2018-07-31T12:12:13.307Z,2.00
2018-07-31T12:17:10.755Z,1.60
2018-07-31T12:22:08.187Z,1.60
2018-07-31T12:27:05.712Z,1.43
2018-07-31T12:32:03.195Z,1.50
2018-07-31T12:37:00.605Z,1.40
2018-07-31T12:41:58.038Z,2.10
2018-07-31T12:46:55.480Z,1.67
2018-07-31T12:51:53.771Z,1.60
2018-07-31T12:56:51.279Z,1.33
2018-07-31T13:01:48.695Z,2.00
2018-07-31T13:06:46.228Z,1.90
2018-07-31T13:11:43.635Z,2.50
2018-07-31T13:16:41.072Z,1.80
2018-07-31T13:21:38.544Z,1.87
2018-07-31T13:26:36.014Z,3.00
2018-07-31T13:31:33.483Z,1.80
2018-07-31T13:36:30.918Z,1.70
2018-07-31T13:41:28.362Z,1.30
2018-07-31T13:46:25.815Z,1.77
2018-07-31T13:51:23.251Z,1.57
2018-07-31T13:56:20.659Z,1.67
2018-07-31T14:01:18.124Z,1.63
2018-07-31T14:06:22.243Z,1.67
2018-07-31T14:11:19.701Z,2.03
2018-07-31T14:16:17.123Z,1.87
2018-07-31T14:21:17.083Z,1.20
2018-07-31T14:26:14.555Z,1.27
2018-07-31T14:31:12.154Z,1.50
2018-07-31T14:36:09.616Z,2.03
2018-07-31T14:41:07.065Z,1.70
2018-07-31T14:46:04.527Z,3.03
2018-07-31T14:51:01.978Z,1.83
2018-07-31T14:55:59.435Z,1.63
2018-07-31T15:00:56.863Z,1.40
2018-07-31T15:05:54.355Z,2.00
2018-07-31T15:10:51.864Z,1.47
2018-07-31T15:15:49.258Z,1.10
2018-07-31T15:20:46.779Z,1.53
2018-07-31T15:25:44.239Z,1.57
2018-07-31T15:30:41.699Z,1.27
2018-07-31T15:35:39.171Z,1.60
2018-07-31T15:40:36.601Z,1.07
2018-07-31T15:45:34.123Z,1.30
2018-07-31T15:50:31.545Z,1.60
2018-07-31T15:55:29.014Z,1.67
2018-07-31T16:00:26.493Z,0.93
2018-07-31T16:05:23.947Z,1.20
2018-07-31T16:10:21.375Z,1.40
2018-07-31T16:15:18.771Z,2.43
2018-07-31T16:20:16.292Z,1.57
2018-07-31T16:25:13.743Z,1.53
2018-07-31T16:30:11.211Z,2.30
2018-07-31T16:35:08.644Z,1.47
2018-07-31T16:40:06.148Z,1.80
2018-07-31T16:45:03.785Z,1.50
2018-07-31T16:50:01.224Z,1.73
2018-07-31T16:54:58.647Z,1.80
2018-07-31T16:59:56.140Z,1.23
2018-07-31T17:04:53.608Z,1.40
2018-07-31T17:09:51.048Z,1.33
2018-07-31T17:14:48.481Z,1.80
2018-07-31T17:19:45.921Z,1.33
2018-07-31T17:24:43.370Z,1.13
2018-07-31T17:29:40.843Z,1.60
2018-07-31T17:34:38.315Z,1.50
2018-07-31T17:39:35.730Z,1.50
2018-07-31T17:44:33.180Z,1.53
2018-07-31T17:49:30.726Z,1.40
2018-07-31T17:54:28.949Z,1.10
2018-07-31T17:59:26.379Z,1.30
2018-07-31T18:04:24.669Z,1.80
2018-07-31T18:09:22.058Z,1.10
2018-07-31T18:14:19.666Z,1.37
2018-07-31T18:19:16.976Z,1.47
2018-07-31T18:24:14.515Z,3.27
2018-07-31T18:29:12.023Z,2.67
2018-07-31T18:34:09.360Z,3.57
2018-07-31T18:39:09.448Z,3.10
2018-07-31T18:44:06.902Z,3.50
2018-07-31T18:49:04.522Z,3.23
2018-07-31T18:54:02.367Z,3.50
2018-07-31T18:58:59.906Z,4.33
2018-07-31T19:03:57.321Z,3.43
2018-07-31T19:08:54.768Z,2.97
2018-07-31T19:13:52.208Z,3.60
2018-07-31T19:18:49.659Z,4.20
2018-07-31T19:23:48.174Z,3.23
2018-07-31T19:28:45.617Z,3.10
2018-07-31T19:33:44.859Z,3.47
2018-07-31T19:39:14.742Z,3.10
2018-07-31T19:44:24.411Z,3.60
2018-07-31T19:49:39.538Z,3.10
2018-07-31T20:00:03.202Z,3.60
2018-07-31T20:05:10.185Z,3.03
2018-07-31T20:10:07.714Z,2.83
2018-07-31T20:15:05.143Z,3.67
2018-07-31T20:20:02.603Z,3.17
2018-07-31T20:25:00.034Z,3.10
2018-07-31T20:29:57.410Z,2.73
2018-07-31T20:34:54.823Z,2.60
2018-07-31T20:39:52.241Z,3.10
2018-07-31T20:44:49.690Z,2.70
2018-07-31T20:49:47.073Z,2.23
2018-07-31T20:54:44.464Z,2.07
2018-07-31T20:59:41.892Z,2.33
2018-07-31T21:04:39.258Z,2.10
2018-07-31T21:09:36.647Z,2.87
2018-07-31T21:14:34.121Z,2.33
2018-07-31T21:19:31.514Z,2.03
2018-07-31T21:24:28.898Z,2.30
2018-07-31T21:29:26.351Z,2.10
2018-07-31T21:34:23.722Z,2.23
2018-07-31T21:39:21.126Z,2.00
2018-07-31T21:44:18.541Z,1.60
2018-07-31T21:49:15.962Z,2.20
2018-07-31T21:54:13.361Z,1.40
2018-07-31T21:59:10.740Z,1.67
2018-07-31T22:04:08.170Z,1.67
2018-07-31T22:09:07.104Z,1.60
2018-07-31T22:14:04.510Z,1.57
2018-07-31T22:19:01.892Z,1.60
2018-07-31T22:24:00.105Z,1.70
2018-07-31T22:28:57.504Z,1.80
2018-07-31T22:33:54.886Z,1.90
2018-07-31T22:38:52.262Z,1.30
2018-07-31T22:43:49.652Z,1.70
2018-07-31T22:48:47.046Z,1.80
2018-07-31T22:53:45.522Z,1.50
2018-07-31T22:58:42.938Z,1.40
2018-07-31T23:03:40.339Z,1.70
2018-07-31T23:08:37.739Z,2.20
2018-07-31T23:13:35.122Z,1.90
2018-07-31T23:18:32.510Z,2.10
2018-07-31T23:23:30.946Z,1.73
2018-07-31T23:28:28.394Z,1.93
2018-07-31T23:33:25.792Z,1.87
2018-07-31T23:38:23.199Z,1.80
2018-07-31T23:43:20.614Z,2.10
2018-07-31T23:48:18.019Z,1.90
2018-07-31T23:53:19.526Z,2.43
2018-07-31T23:58:16.971Z,1.87
